sensor_id;sensor_type;location;lat;lon;timestamp;pressure;altitude;pressure_sealevel;temperature;humidity
59971;BME280;45825;45.434;9.116;2022-08-02T00:00:22;99992.44;;;28.69;29.00
59971;BME280;45825;45.434;9.116;2022-08-02T00:02:47;99998.25;;;28.80;29.20
59971;BME280;45825;45.434;9.116;2022-08-02T00:05:14;99997.84;;;28.69;29.14
59971;BME280;45825;45.434;9.116;2022-08-02T00:07:39;100004.31;;;28.68;29.79
59971;BME280;45825;45.434;9.116;2022-08-02T00:10:05;99998.47;;;28.71;29.62
59971;BME280;45825;45.434;9.116;2022-08-02T00:12:31;99998.69;;;28.63;29.50
59971;BME280;45825;45.434;9.116;2022-08-02T00:14:56;99999.53;;;28.57;29.79
59971;BME280;45825;45.434;9.116;2022-08-02T00:17:22;99995.38;;;28.54;29.82
59971;BME280;45825;45.434;9.116;2022-08-02T00:19:47;99991.63;;;28.49;29.68
59971;BME280;45825;45.434;9.116;2022-08-02T00:22:13;99994.34;;;28.42;29.86
59971;BME280;45825;45.434;9.116;2022-08-02T00:24:38;99997.47;;;28.39;30.14
59971;BME280;45825;45.434;9.116;2022-08-02T00:27:04;100000.59;;;28.29;30.13
59971;BME280;45825;45.434;9.116;2022-08-02T00:29:32;100003.50;;;28.27;29.86
59971;BME280;45825;45.434;9.116;2022-08-02T00:31:58;100001.63;;;28.35;29.73
59971;BME280;45825;45.434;9.116;2022-08-02T00:34:23;100005.38;;;28.20;30.08
59971;BME280;45825;45.434;9.116;2022-08-02T00:36:49;99993.72;;;28.26;29.43
59971;BME280;45825;45.434;9.116;2022-08-02T00:39:14;99993.97;;;28.18;29.72
59971;BME280;45825;45.434;9.116;2022-08-02T00:41:51;99995.38;;;28.27;29.74
59971;BME280;45825;45.434;9.116;2022-08-02T00:44:18;99986.22;;;28.15;29.80
59971;BME280;45825;45.434;9.116;2022-08-02T00:46:45;99986.22;;;28.15;29.87
59971;BME280;45825;45.434;9.116;2022-08-02T00:49:11;99984.13;;;28.17;29.92
59971;BME280;45825;45.434;9.116;2022-08-02T00:51:38;99982.91;;;28.20;29.51
59971;BME280;45825;45.434;9.116;2022-08-02T00:54:03;99981.06;;;28.20;29.34
59971;BME280;45825;45.434;9.116;2022-08-02T00:56:29;99971.66;;;28.16;29.98
59971;BME280;45825;45.434;9.116;2022-08-02T00:58:54;99979.13;;;28.14;30.18
59971;BME280;45825;45.434;9.116;2022-08-02T01:01:20;99983.09;;;27.98;29.88
59971;BME280;45825;45.434;9.116;2022-08-02T01:03:45;99990.34;;;27.84;30.16
59971;BME280;45825;45.434;9.116;2022-08-02T01:06:11;99987.03;;;27.88;29.66
59971;BME280;45825;45.434;9.116;2022-08-02T01:08:38;99991.81;;;27.93;30.19
59971;BME280;45825;45.434;9.116;2022-08-02T01:11:03;99994.31;;;27.88;30.32
59971;BME280;45825;45.434;9.116;2022-08-02T01:13:28;99992.44;;;27.95;30.55
59971;BME280;45825;45.434;9.116;2022-08-02T01:16:00;99994.53;;;28.07;31.20
59971;BME280;45825;45.434;9.116;2022-08-02T01:18:31;100003.03;;;27.83;31.53
59971;BME280;45825;45.434;9.116;2022-08-02T01:21:16;100009.28;;;27.91;31.61
59971;BME280;45825;45.434;9.116;2022-08-02T01:23:55;100013.19;;;27.68;32.16
59971;BME280;45825;45.434;9.116;2022-08-02T01:26:38;100026.69;;;27.61;31.73
59971;BME280;45825;45.434;9.116;2022-08-02T01:29:28;100028.19;;;27.91;29.98
59971;BME280;45825;45.434;9.116;2022-08-02T01:34:33;100031.91;;;27.76;31.93
59971;BME280;45825;45.434;9.116;2022-08-02T01:39:37;100024.81;;;27.61;32.31
59971;BME280;45825;45.434;9.116;2022-08-02T01:42:05;100029.69;;;27.38;32.51
59971;BME280;45825;45.434;9.116;2022-08-02T01:44:33;100033.38;;;27.23;33.17
59971;BME280;45825;45.434;9.116;2022-08-02T01:47:03;100036.16;;;27.37;32.77
59971;BME280;45825;45.434;9.116;2022-08-02T01:49:31;100037.81;;;27.44;32.85
59971;BME280;45825;45.434;9.116;2022-08-02T01:51:59;100048.03;;;27.49;32.80
59971;BME280;45825;45.434;9.116;2022-08-02T01:54:44;100042.25;;;27.59;33.55
59971;BME280;45825;45.434;9.116;2022-08-02T01:57:12;100047.25;;;27.62;34.61
59971;BME280;45825;45.434;9.116;2022-08-02T01:59:41;100043.44;;;27.50;35.05
59971;BME280;45825;45.434;9.116;2022-08-02T02:02:07;100054.00;;;27.38;34.98
59971;BME280;45825;45.434;9.116;2022-08-02T02:04:34;100054.81;;;27.31;35.00
59971;BME280;45825;45.434;9.116;2022-08-02T02:07:01;100050.84;;;27.27;35.75
59971;BME280;45825;45.434;9.116;2022-08-02T02:09:29;100058.38;;;27.03;36.26
59971;BME280;45825;45.434;9.116;2022-08-02T02:11:57;100053.28;;;26.87;36.74
59971;BME280;45825;45.434;9.116;2022-08-02T02:14:23;100048.19;;;26.70;37.07
59971;BME280;45825;45.434;9.116;2022-08-02T02:16:49;100061.94;;;26.75;36.84
59971;BME280;45825;45.434;9.116;2022-08-02T02:19:15;100053.34;;;26.94;36.72
59971;BME280;45825;45.434;9.116;2022-08-02T02:21:42;100057.09;;;26.92;36.96
59971;BME280;45825;45.434;9.116;2022-08-02T02:24:08;100067.63;;;26.87;37.34
59971;BME280;45825;45.434;9.116;2022-08-02T02:26:34;100056.34;;;26.77;37.56
59971;BME280;45825;45.434;9.116;2022-08-02T02:29:02;100056.50;;;26.69;37.55
59971;BME280;45825;45.434;9.116;2022-08-02T02:31:31;100047.59;;;26.75;37.70
59971;BME280;45825;45.434;9.116;2022-08-02T02:34:02;100052.13;;;26.68;37.79
59971;BME280;45825;45.434;9.116;2022-08-02T02:36:29;100053.94;;;26.60;38.02
59971;BME280;45825;45.434;9.116;2022-08-02T02:39:01;100058.25;;;26.55;38.48
59971;BME280;45825;45.434;9.116;2022-08-02T02:41:27;100061.13;;;26.53;38.21
59971;BME280;45825;45.434;9.116;2022-08-02T02:43:54;100059.28;;;26.54;38.05
59971;BME280;45825;45.434;9.116;2022-08-02T02:46:21;100058.56;;;26.67;38.12
59971;BME280;45825;45.434;9.116;2022-08-02T02:48:48;100049.47;;;26.74;37.95
59971;BME280;45825;45.434;9.116;2022-08-02T02:51:15;100053.53;;;26.92;37.77
59971;BME280;45825;45.434;9.116;2022-08-02T02:53:42;100061.47;;;26.94;37.90
59971;BME280;45825;45.434;9.116;2022-08-02T02:56:09;100064.22;;;26.78;38.51
59971;BME280;45825;45.434;9.116;2022-08-02T02:58:37;100068.09;;;26.69;39.67
59971;BME280;45825;45.434;9.116;2022-08-02T03:01:02;100073.06;;;26.66;39.94
59971;BME280;45825;45.434;9.116;2022-08-02T03:03:48;100069.66;;;26.85;40.47
59971;BME280;45825;45.434;9.116;2022-08-02T03:06:13;100080.78;;;26.69;40.43
59971;BME280;45825;45.434;9.116;2022-08-02T03:08:39;100077.53;;;26.52;41.12
59971;BME280;45825;45.434;9.116;2022-08-02T03:11:07;100083.06;;;26.43;41.39
59971;BME280;45825;45.434;9.116;2022-08-02T03:13:33;100076.22;;;26.47;41.37
59971;BME280;45825;45.434;9.116;2022-08-02T03:16:00;100087.25;;;26.46;41.36
59971;BME280;45825;45.434;9.116;2022-08-02T03:18:39;100082.56;;;26.61;41.32
59971;BME280;45825;45.434;9.116;2022-08-02T03:21:07;100083.66;;;26.67;41.55
59971;BME280;45825;45.434;9.116;2022-08-02T03:23:34;100092.56;;;26.61;41.80
59971;BME280;45825;45.434;9.116;2022-08-02T03:26:00;100086.25;;;26.54;42.00
59971;BME280;45825;45.434;9.116;2022-08-02T03:28:26;100094.75;;;26.50;42.55
59971;BME280;45825;45.434;9.116;2022-08-02T03:30:51;100099.09;;;26.52;42.50
59971;BME280;45825;45.434;9.116;2022-08-02T03:33:19;100097.94;;;26.61;42.34
59971;BME280;45825;45.434;9.116;2022-08-02T03:35:46;100096.59;;;26.78;42.61
59971;BME280;45825;45.434;9.116;2022-08-02T03:38:13;100097.59;;;26.71;43.33
59971;BME280;45825;45.434;9.116;2022-08-02T03:40:41;100098.50;;;26.78;42.88
59971;BME280;45825;45.434;9.116;2022-08-02T03:43:08;100104.03;;;26.98;42.51
59971;BME280;45825;45.434;9.116;2022-08-02T03:45:33;100113.81;;;26.99;42.50
59971;BME280;45825;45.434;9.116;2022-08-02T03:48:00;100122.78;;;27.07;42.94
59971;BME280;45825;45.434;9.116;2022-08-02T03:50:26;100119.41;;;26.98;43.30
59971;BME280;45825;45.434;9.116;2022-08-02T03:52:52;100126.56;;;27.12;42.97
59971;BME280;45825;45.434;9.116;2022-08-02T03:55:18;100126.66;;;27.26;42.86
59971;BME280;45825;45.434;9.116;2022-08-02T03:57:43;100128.81;;;27.09;43.07
59971;BME280;45825;45.434;9.116;2022-08-02T04:00:10;100130.84;;;27.00;43.49
59971;BME280;45825;45.434;9.116;2022-08-02T04:02:37;100133.34;;;27.01;43.85
59971;BME280;45825;45.434;9.116;2022-08-02T04:05:02;100148.53;;;27.09;43.83
59971;BME280;45825;45.434;9.116;2022-08-02T04:07:28;100151.47;;;27.08;43.94
59971;BME280;45825;45.434;9.116;2022-08-02T04:09:53;100156.41;;;27.04;44.06
59971;BME280;45825;45.434;9.116;2022-08-02T04:12:19;100163.16;;;26.93;44.45
59971;BME280;45825;45.434;9.116;2022-08-02T04:14:44;100169.59;;;26.92;45.20
59971;BME280;45825;45.434;9.116;2022-08-02T04:17:11;100169.06;;;27.03;45.73
59971;BME280;45825;45.434;9.116;2022-08-02T04:19:47;100180.66;;;26.97;45.94
59971;BME280;45825;45.434;9.116;2022-08-02T04:22:23;100184.03;;;26.84;46.72
59971;BME280;45825;45.434;9.116;2022-08-02T04:24:51;100188.69;;;26.69;47.40
59971;BME280;45825;45.434;9.116;2022-08-02T04:27:19;100187.38;;;26.64;47.58
59971;BME280;45825;45.434;9.116;2022-08-02T04:29:47;100200.28;;;26.47;48.19
59971;BME280;45825;45.434;9.116;2022-08-02T04:32:14;100198.94;;;26.36;49.14
59971;BME280;45825;45.434;9.116;2022-08-02T04:34:42;100205.56;;;26.34;49.18
59971;BME280;45825;45.434;9.116;2022-08-02T04:37:08;100206.22;;;26.21;50.00
59971;BME280;45825;45.434;9.116;2022-08-02T04:39:35;100208.94;;;26.21;50.08
59971;BME280;45825;45.434;9.116;2022-08-02T04:42:00;100218.88;;;26.20;50.20
59971;BME280;45825;45.434;9.116;2022-08-02T04:44:26;100223.97;;;26.15;50.72
59971;BME280;45825;45.434;9.116;2022-08-02T04:46:51;100231.34;;;26.06;51.04
59971;BME280;45825;45.434;9.116;2022-08-02T04:49:17;100240.94;;;25.94;51.33
59971;BME280;45825;45.434;9.116;2022-08-02T04:51:42;100242.78;;;25.93;51.70
59971;BME280;45825;45.434;9.116;2022-08-02T04:54:08;100261.94;;;25.99;51.50
59971;BME280;45825;45.434;9.116;2022-08-02T04:56:34;100262.03;;;25.90;52.27
59971;BME280;45825;45.434;9.116;2022-08-02T04:59:00;100270.09;;;25.90;52.33
59971;BME280;45825;45.434;9.116;2022-08-02T05:01:25;100274.94;;;25.80;52.72
59971;BME280;45825;45.434;9.116;2022-08-02T05:03:51;100273.25;;;25.79;52.59
59971;BME280;45825;45.434;9.116;2022-08-02T05:06:16;100287.47;;;25.88;52.55
59971;BME280;45825;45.434;9.116;2022-08-02T05:08:44;100286.44;;;25.89;53.04
59971;BME280;45825;45.434;9.116;2022-08-02T05:11:09;100289.97;;;25.74;53.28
59971;BME280;45825;45.434;9.116;2022-08-02T05:13:35;100293.41;;;25.68;53.50
59971;BME280;45825;45.434;9.116;2022-08-02T05:16:00;100304.06;;;25.61;53.92
59971;BME280;45825;45.434;9.116;2022-08-02T05:18:27;100306.22;;;25.66;53.67
59971;BME280;45825;45.434;9.116;2022-08-02T05:20:53;100314.06;;;25.76;53.46
59971;BME280;45825;45.434;9.116;2022-08-02T05:23:19;100316.72;;;25.61;53.91
59971;BME280;45825;45.434;9.116;2022-08-02T05:25:44;100321.19;;;25.69;53.82
59971;BME280;45825;45.434;9.116;2022-08-02T05:28:09;100313.41;;;26.04;53.01
59971;BME280;45825;45.434;9.116;2022-08-02T05:30:35;100314.81;;;26.15;52.54
59971;BME280;45825;45.434;9.116;2022-08-02T05:33:00;100325.75;;;25.98;52.96
59971;BME280;45825;45.434;9.116;2022-08-02T05:35:25;100329.00;;;25.93;53.25
59971;BME280;45825;45.434;9.116;2022-08-02T05:37:51;100332.91;;;26.06;53.00
59971;BME280;45825;45.434;9.116;2022-08-02T05:40:17;100332.72;;;26.07;53.22
59971;BME280;45825;45.434;9.116;2022-08-02T05:42:43;100337.88;;;26.17;53.00
59971;BME280;45825;45.434;9.116;2022-08-02T05:45:09;100340.88;;;25.84;53.61
59971;BME280;45825;45.434;9.116;2022-08-02T05:47:35;100339.28;;;25.60;54.26
59971;BME280;45825;45.434;9.116;2022-08-02T05:50:00;100354.25;;;25.77;53.63
59971;BME280;45825;45.434;9.116;2022-08-02T05:52:34;100346.59;;;25.51;53.88
59971;BME280;45825;45.434;9.116;2022-08-02T05:55:11;100353.47;;;25.53;53.86
59971;BME280;45825;45.434;9.116;2022-08-02T05:58:05;100360.72;;;25.53;52.69
59971;BME280;45825;45.434;9.116;2022-08-02T06:00:39;100360.69;;;25.91;52.73
59971;BME280;45825;45.434;9.116;2022-08-02T06:03:24;100362.94;;;26.03;52.63
59971;BME280;45825;45.434;9.116;2022-08-02T06:05:58;100357.00;;;26.07;51.44
59971;BME280;45825;45.434;9.116;2022-08-02T06:08:24;100366.00;;;26.00;50.66
59971;BME280;45825;45.434;9.116;2022-08-02T06:10:55;100366.06;;;25.76;51.24
59971;BME280;45825;45.434;9.116;2022-08-02T06:13:21;100366.56;;;25.95;50.45
59971;BME280;45825;45.434;9.116;2022-08-02T06:15:50;100377.44;;;26.17;51.20
59971;BME280;45825;45.434;9.116;2022-08-02T06:18:16;100369.75;;;26.44;50.20
59971;BME280;45825;45.434;9.116;2022-08-02T06:20:48;100380.44;;;26.52;49.45
59971;BME280;45825;45.434;9.116;2022-08-02T06:23:14;100373.84;;;26.40;49.52
59971;BME280;45825;45.434;9.116;2022-08-02T06:25:41;100375.97;;;26.59;48.67
59971;BME280;45825;45.434;9.116;2022-08-02T06:28:07;100374.84;;;26.69;47.71
59971;BME280;45825;45.434;9.116;2022-08-02T06:30:32;100374.09;;;26.60;47.72
59971;BME280;45825;45.434;9.116;2022-08-02T06:32:58;100385.50;;;26.40;48.36
59971;BME280;45825;45.434;9.116;2022-08-02T06:35:30;100391.06;;;26.39;48.15
59971;BME280;45825;45.434;9.116;2022-08-02T06:37:59;100402.09;;;26.44;47.61
59971;BME280;45825;45.434;9.116;2022-08-02T06:40:44;100398.41;;;26.45;48.43
59971;BME280;45825;45.434;9.116;2022-08-02T06:43:30;100405.34;;;26.54;48.30
59971;BME280;45825;45.434;9.116;2022-08-02T06:45:59;100397.16;;;26.77;48.17
59971;BME280;45825;45.434;9.116;2022-08-02T06:48:24;100400.25;;;26.89;47.80
59971;BME280;45825;45.434;9.116;2022-08-02T06:50:49;100408.03;;;26.69;46.99
59971;BME280;45825;45.434;9.116;2022-08-02T06:53:15;100408.81;;;26.63;47.65
59971;BME280;45825;45.434;9.116;2022-08-02T06:55:40;100402.31;;;26.57;47.74
59971;BME280;45825;45.434;9.116;2022-08-02T06:58:05;100416.53;;;26.66;47.92
59971;BME280;45825;45.434;9.116;2022-08-02T07:00:31;100413.84;;;26.51;47.63
59971;BME280;45825;45.434;9.116;2022-08-02T07:02:56;100404.06;;;26.65;48.04
59971;BME280;45825;45.434;9.116;2022-08-02T07:05:22;100408.97;;;26.91;47.66
59971;BME280;45825;45.434;9.116;2022-08-02T07:07:48;100406.75;;;26.65;48.29
59971;BME280;45825;45.434;9.116;2022-08-02T07:10:14;100409.63;;;26.78;48.01
59971;BME280;45825;45.434;9.116;2022-08-02T07:12:40;100409.34;;;26.73;48.18
59971;BME280;45825;45.434;9.116;2022-08-02T07:15:07;100423.41;;;26.69;48.00
59971;BME280;45825;45.434;9.116;2022-08-02T07:17:34;100422.84;;;26.58;48.58
59971;BME280;45825;45.434;9.116;2022-08-02T07:20:00;100425.81;;;26.78;48.37
59971;BME280;45825;45.434;9.116;2022-08-02T07:22:26;100422.28;;;26.78;48.78
59971;BME280;45825;45.434;9.116;2022-08-02T07:24:53;100422.47;;;26.91;48.57
59971;BME280;45825;45.434;9.116;2022-08-02T07:27:20;100420.81;;;26.90;48.70
59971;BME280;45825;45.434;9.116;2022-08-02T07:29:45;100422.38;;;26.70;48.93
59971;BME280;45825;45.434;9.116;2022-08-02T07:32:10;100427.06;;;26.61;49.06
59971;BME280;45825;45.434;9.116;2022-08-02T07:34:36;100424.88;;;26.71;48.86
59971;BME280;45825;45.434;9.116;2022-08-02T07:37:01;100427.94;;;26.98;49.30
59971;BME280;45825;45.434;9.116;2022-08-02T07:39:27;100434.94;;;26.92;48.05
59971;BME280;45825;45.434;9.116;2022-08-02T07:41:53;100419.13;;;26.74;48.25
59971;BME280;45825;45.434;9.116;2022-08-02T07:44:18;100427.50;;;26.64;47.71
59971;BME280;45825;45.434;9.116;2022-08-02T07:46:44;100421.94;;;26.51;48.28
59971;BME280;45825;45.434;9.116;2022-08-02T07:49:10;100415.31;;;26.69;47.77
59971;BME280;45825;45.434;9.116;2022-08-02T07:51:37;100430.56;;;26.61;47.14
59971;BME280;45825;45.434;9.116;2022-08-02T07:54:03;100430.63;;;26.83;49.15
59971;BME280;45825;45.434;9.116;2022-08-02T07:56:28;100430.91;;;27.03;48.47
59971;BME280;45825;45.434;9.116;2022-08-02T07:58:54;100428.38;;;27.17;48.15
59971;BME280;45825;45.434;9.116;2022-08-02T08:01:19;100422.91;;;27.32;46.95
59971;BME280;45825;45.434;9.116;2022-08-02T08:03:44;100426.69;;;27.16;47.30
59971;BME280;45825;45.434;9.116;2022-08-02T08:06:10;100425.22;;;27.35;46.99
59971;BME280;45825;45.434;9.116;2022-08-02T08:08:35;100419.78;;;27.50;46.51
59971;BME280;45825;45.434;9.116;2022-08-02T08:11:01;100415.41;;;27.49;45.17
59971;BME280;45825;45.434;9.116;2022-08-02T08:13:27;100425.81;;;27.52;45.31
59971;BME280;45825;45.434;9.116;2022-08-02T08:15:52;100422.63;;;27.64;46.00
59971;BME280;45825;45.434;9.116;2022-08-02T08:18:19;100432.75;;;27.40;45.05
59971;BME280;45825;45.434;9.116;2022-08-02T08:20:45;100426.06;;;27.36;44.93
59971;BME280;45825;45.434;9.116;2022-08-02T08:23:10;100427.97;;;27.57;45.97
59971;BME280;45825;45.434;9.116;2022-08-02T08:25:35;100417.59;;;27.60;44.67
59971;BME280;45825;45.434;9.116;2022-08-02T08:28:01;100431.72;;;27.84;45.34
59971;BME280;45825;45.434;9.116;2022-08-02T08:30:26;100418.34;;;27.76;44.92
59971;BME280;45825;45.434;9.116;2022-08-02T08:32:51;100422.44;;;27.65;45.50
59971;BME280;45825;45.434;9.116;2022-08-02T08:35:17;100414.31;;;27.43;45.01
59971;BME280;45825;45.434;9.116;2022-08-02T08:37:42;100410.13;;;27.63;45.67
59971;BME280;45825;45.434;9.116;2022-08-02T08:40:09;100412.13;;;27.75;44.95
59971;BME280;45825;45.434;9.116;2022-08-02T08:42:36;100419.06;;;27.63;43.97
59971;BME280;45825;45.434;9.116;2022-08-02T08:45:03;100417.19;;;27.85;44.46
59971;BME280;45825;45.434;9.116;2022-08-02T08:47:39;100422.50;;;28.00;43.85
59971;BME280;45825;45.434;9.116;2022-08-02T08:50:16;100416.28;;;28.07;44.17
59971;BME280;45825;45.434;9.116;2022-08-02T08:55:28;100417.72;;;28.31;42.28
59971;BME280;45825;45.434;9.116;2022-08-02T08:57:54;100425.28;;;28.42;42.05
59971;BME280;45825;45.434;9.116;2022-08-02T09:00:22;100422.56;;;28.42;42.02
59971;BME280;45825;45.434;9.116;2022-08-02T09:02:48;100424.28;;;28.50;42.64
59971;BME280;45825;45.434;9.116;2022-08-02T09:05:14;100426.63;;;28.60;42.42
59971;BME280;45825;45.434;9.116;2022-08-02T09:07:41;100420.00;;;28.69;42.66
59971;BME280;45825;45.434;9.116;2022-08-02T09:10:31;100418.19;;;28.41;41.72
59971;BME280;45825;45.434;9.116;2022-08-02T09:15:39;100429.19;;;28.75;42.62
59971;BME280;45825;45.434;9.116;2022-08-02T09:18:06;100428.66;;;28.86;42.71
59971;BME280;45825;45.434;9.116;2022-08-02T09:20:33;100431.53;;;28.85;41.10
59971;BME280;45825;45.434;9.116;2022-08-02T09:23:10;100435.94;;;28.93;40.71
59971;BME280;45825;45.434;9.116;2022-08-02T09:25:36;100432.25;;;29.00;41.64
59971;BME280;45825;45.434;9.116;2022-08-02T09:28:03;100432.28;;;29.14;40.25
59971;BME280;45825;45.434;9.116;2022-08-02T09:30:29;100428.13;;;29.25;40.55
59971;BME280;45825;45.434;9.116;2022-08-02T09:32:55;100420.66;;;29.40;40.86
59971;BME280;45825;45.434;9.116;2022-08-02T09:35:34;100426.88;;;29.34;40.78
59971;BME280;45825;45.434;9.116;2022-08-02T09:38:08;100425.69;;;29.50;40.73
59971;BME280;45825;45.434;9.116;2022-08-02T09:40:36;100421.13;;;29.64;40.45
59971;BME280;45825;45.434;9.116;2022-08-02T09:43:02;100423.63;;;29.79;40.21
59971;BME280;45825;45.434;9.116;2022-08-02T09:45:34;100423.81;;;29.78;39.63
59971;BME280;45825;45.434;9.116;2022-08-02T09:48:10;100420.06;;;29.65;39.82
59971;BME280;45825;45.434;9.116;2022-08-02T09:50:37;100426.75;;;29.83;40.24
59971;BME280;45825;45.434;9.116;2022-08-02T09:53:03;100418.41;;;30.11;39.71
59971;BME280;45825;45.434;9.116;2022-08-02T09:55:28;100417.78;;;30.23;38.86
59971;BME280;45825;45.434;9.116;2022-08-02T09:57:54;100418.97;;;30.34;38.79
59971;BME280;45825;45.434;9.116;2022-08-02T10:00:19;100412.34;;;30.23;38.80
59971;BME280;45825;45.434;9.116;2022-08-02T10:03:04;100422.56;;;30.07;38.40
59971;BME280;45825;45.434;9.116;2022-08-02T10:05:29;100420.84;;;30.40;38.30
59971;BME280;45825;45.434;9.116;2022-08-02T10:07:56;100417.09;;;30.41;37.72
59971;BME280;45825;45.434;9.116;2022-08-02T10:10:22;100421.91;;;30.39;37.76
59971;BME280;45825;45.434;9.116;2022-08-02T10:12:47;100407.84;;;30.62;37.45
59971;BME280;45825;45.434;9.116;2022-08-02T10:15:14;100414.28;;;30.75;37.35
59971;BME280;45825;45.434;9.116;2022-08-02T10:17:39;100400.66;;;30.88;37.80
59971;BME280;45825;45.434;9.116;2022-08-02T10:20:05;100408.88;;;31.14;37.97
59971;BME280;45825;45.434;9.116;2022-08-02T10:22:33;100403.03;;;31.10;37.49
59971;BME280;45825;45.434;9.116;2022-08-02T10:25:02;100394.78;;;31.30;37.51
59971;BME280;45825;45.434;9.116;2022-08-02T10:27:28;100386.69;;;31.49;36.55
59971;BME280;45825;45.434;9.116;2022-08-02T10:29:56;100388.97;;;31.20;36.08
59971;BME280;45825;45.434;9.116;2022-08-02T10:32:28;100383.97;;;31.49;36.36
59971;BME280;45825;45.434;9.116;2022-08-02T10:34:58;100384.78;;;31.82;36.17
59971;BME280;45825;45.434;9.116;2022-08-02T10:37:28;100375.28;;;32.10;35.91
59971;BME280;45825;45.434;9.116;2022-08-02T10:39:56;100373.41;;;32.10;35.79
59971;BME280;45825;45.434;9.116;2022-08-02T10:42:44;100377.72;;;32.55;35.41
59971;BME280;45825;45.434;9.116;2022-08-02T10:45:12;100375.75;;;32.44;33.61
59971;BME280;45825;45.434;9.116;2022-08-02T10:53:33;100364.31;;;33.46;32.77
59971;BME280;45825;45.434;9.116;2022-08-02T10:56:03;100364.56;;;33.80;32.03
59971;BME280;45825;45.434;9.116;2022-08-02T10:58:31;100356.03;;;33.88;31.73
59971;BME280;45825;45.434;9.116;2022-08-02T11:01:27;100355.69;;;33.61;32.17
59971;BME280;45825;45.434;9.116;2022-08-02T11:03:58;100349.63;;;34.06;32.00
59971;BME280;45825;45.434;9.116;2022-08-02T11:06:24;100364.22;;;34.00;32.29
59971;BME280;45825;45.434;9.116;2022-08-02T11:08:50;100358.25;;;33.91;32.36
59971;BME280;45825;45.434;9.116;2022-08-02T11:11:17;100351.50;;;34.06;31.52
59971;BME280;45825;45.434;9.116;2022-08-02T11:19:25;100338.88;;;34.69;29.65
59971;BME280;45825;45.434;9.116;2022-08-02T11:24:27;100342.19;;;34.72;29.44
59971;BME280;45825;45.434;9.116;2022-08-02T11:26:53;100342.50;;;34.46;29.96
59971;BME280;45825;45.434;9.116;2022-08-02T11:29:19;100332.34;;;34.71;30.19
59971;BME280;45825;45.434;9.116;2022-08-02T11:31:45;100338.72;;;34.76;30.29
59971;BME280;45825;45.434;9.116;2022-08-02T11:34:10;100330.56;;;34.93;29.12
59971;BME280;45825;45.434;9.116;2022-08-02T11:36:46;100335.75;;;35.24;28.88
59971;BME280;45825;45.434;9.116;2022-08-02T11:39:16;100327.84;;;35.45;28.56
59971;BME280;45825;45.434;9.116;2022-08-02T11:41:54;100329.50;;;35.46;28.93
59971;BME280;45825;45.434;9.116;2022-08-02T11:44:22;100319.41;;;35.46;29.17
59971;BME280;45825;45.434;9.116;2022-08-02T11:46:58;100311.72;;;35.60;28.78
59971;BME280;45825;45.434;9.116;2022-08-02T11:49:24;100320.59;;;35.33;28.48
59971;BME280;45825;45.434;9.116;2022-08-02T11:51:53;100317.19;;;35.60;28.72
59971;BME280;45825;45.434;9.116;2022-08-02T11:54:22;100314.28;;;35.33;28.08
59971;BME280;45825;45.434;9.116;2022-08-02T11:56:48;100312.03;;;35.47;28.92
59971;BME280;45825;45.434;9.116;2022-08-02T11:59:13;100309.09;;;35.53;28.78
59971;BME280;45825;45.434;9.116;2022-08-02T12:01:38;100306.50;;;35.59;27.50
59971;BME280;45825;45.434;9.116;2022-08-02T12:04:05;100301.38;;;35.28;27.87
59971;BME280;45825;45.434;9.116;2022-08-02T12:06:31;100302.59;;;35.55;28.79
59971;BME280;45825;45.434;9.116;2022-08-02T12:09:07;100302.94;;;36.03;27.99
59971;BME280;45825;45.434;9.116;2022-08-02T12:11:33;100293.91;;;35.41;28.22
59971;BME280;45825;45.434;9.116;2022-08-02T12:13:59;100301.78;;;35.93;28.25
59971;BME280;45825;45.434;9.116;2022-08-02T12:16:32;100297.06;;;36.11;27.80
59971;BME280;45825;45.434;9.116;2022-08-02T12:19:16;100288.81;;;35.49;27.44
59971;BME280;45825;45.434;9.116;2022-08-02T12:21:47;100287.19;;;35.48;28.33
59971;BME280;45825;45.434;9.116;2022-08-02T12:24:26;100296.91;;;35.05;28.32
59971;BME280;45825;45.434;9.116;2022-08-02T12:26:51;100293.31;;;35.38;28.48
59971;BME280;45825;45.434;9.116;2022-08-02T12:29:28;100283.19;;;35.96;28.21
59971;BME280;45825;45.434;9.116;2022-08-02T12:31:53;100280.06;;;36.09;28.56
59971;BME280;45825;45.434;9.116;2022-08-02T12:34:19;100283.03;;;35.46;27.86
59971;BME280;45825;45.434;9.116;2022-08-02T12:37:08;100274.53;;;35.25;28.53
59971;BME280;45825;45.434;9.116;2022-08-02T12:42:02;100272.38;;;35.10;28.45
59971;BME280;45825;45.434;9.116;2022-08-02T12:44:28;100269.38;;;35.29;28.69
59971;BME280;45825;45.434;9.116;2022-08-02T12:47:07;100263.50;;;35.76;28.78
59971;BME280;45825;45.434;9.116;2022-08-02T12:49:36;100262.16;;;34.88;29.16
59971;BME280;45825;45.434;9.116;2022-08-02T12:52:20;100256.84;;;34.64;29.39
59971;BME280;45825;45.434;9.116;2022-08-02T12:54:46;100264.28;;;34.52;29.84
59971;BME280;45825;45.434;9.116;2022-08-02T12:57:15;100256.56;;;35.12;29.43
59971;BME280;45825;45.434;9.116;2022-08-02T12:59:41;100255.34;;;35.59;29.29
59971;BME280;45825;45.434;9.116;2022-08-02T13:02:09;100253.47;;;35.82;29.25
59971;BME280;45825;45.434;9.116;2022-08-02T13:04:35;100248.03;;;35.65;28.77
59971;BME280;45825;45.434;9.116;2022-08-02T13:07:01;100248.03;;;35.26;29.18
59971;BME280;45825;45.434;9.116;2022-08-02T13:09:32;100236.72;;;35.56;29.40
59971;BME280;45825;45.434;9.116;2022-08-02T13:11:59;100236.94;;;35.72;29.05
59971;BME280;45825;45.434;9.116;2022-08-02T13:14:24;100233.53;;;35.87;29.18
59971;BME280;45825;45.434;9.116;2022-08-02T13:16:49;100244.75;;;35.46;29.79
59971;BME280;45825;45.434;9.116;2022-08-02T13:19:15;100239.16;;;35.75;29.78
59971;BME280;45825;45.434;9.116;2022-08-02T13:21:42;100233.97;;;35.56;29.22